Time;durP1;ratioP1;P1;durP2;ratioP2;P2;SDS_P1;SDS_P2;PMS_P1;PMS_P2;Temp;Humidity;BMP_temperature;BMP_pressure;BME280_temperature;BME280_humidity;BME280_pressure;Samples;Min_cycle;Max_cycle;Signal;HPM_P1;HPM_P2
2023/11/01 00:02:19;;;;;;;2.90;1.88;;;9.30;99.90;;;;;;4982436;28;20250;-67
2023/11/01 00:04:45;;;;;;;1.50;1.25;;;9.30;99.90;;;;;;4984204;28;20209;-68
2023/11/01 00:07:12;;;;;;;1.25;1.00;;;9.30;99.90;;;;;;4984189;28;20200;-67
2023/11/01 00:09:40;;;;;;;2.55;1.15;;;9.30;99.90;;;;;;4991376;28;20210;-67
2023/11/01 00:12:09;;;;;;;1.27;1.13;;;9.30;99.90;;;;;;4991827;28;20231;-67
2023/11/01 00:14:43;;;;;;;3.47;1.40;;;9.30;99.90;;;;;;4992110;28;20238;-66
2023/11/01 04:33:25;;;;;;;1.08;0.98;;;8.80;99.90;;;;;;4965632;28;20289;-66
2023/11/01 04:35:53;;;;;;;1.40;1.30;;;8.70;99.90;;;;;;4967118;28;20211;-66
2023/11/01 04:38:20;;;;;;;1.02;0.90;;;8.60;99.90;;;;;;4972145;28;20216;-66
2023/11/01 04:40:49;;;;;;;1.23;0.93;;;8.60;99.90;;;;;;4969614;28;20224;-66
2023/11/01 04:43:17;;;;;;;1.20;1.08;;;8.60;99.90;;;;;;4966015;28;20212;-66
2023/11/01 04:45:44;;;;;;;1.15;1.00;;;8.50;99.90;;;;;;4959307;28;20684;-66
2023/11/01 04:48:11;;;;;;;1.10;1.00;;;8.40;99.90;;;;;;4960363;28;20646;-66
2023/11/01 04:50:39;;;;;;;1.20;1.10;;;8.40;99.90;;;;;;4961407;28;20239;-66
2023/11/01 04:53:06;;;;;;;1.08;0.98;;;8.30;99.90;;;;;;4964605;28;20207;-67
2023/11/01 04:55:32;;;;;;;1.52;1.17;;;8.30;99.90;;;;;;4962170;28;20684;-65
2023/11/01 04:57:59;;;;;;;1.33;1.00;;;8.30;99.90;;;;;;4959563;28;20205;-65
2023/11/01 05:00:26;;;;;;;1.85;1.30;;;8.30;99.90;;;;;;4962970;28;20204;-66
2023/11/01 05:02:52;;;;;;;0.80;0.80;;;8.20;99.90;;;;;;4962773;28;20205;-65
2023/11/01 05:05:19;;;;;;;1.02;0.90;;;8.20;99.90;;;;;;4962954;28;20212;-65
2023/11/01 05:07:47;;;;;;;1.42;1.30;;;8.10;99.90;;;;;;4960460;28;20215;-66
2023/11/01 05:10:15;;;;;;;1.55;1.10;;;8.10;99.90;;;;;;4961273;28;20228;-65
2023/11/01 05:12:42;;;;;;;1.00;0.90;;;8.10;99.90;;;;;;4961565;28;20215;-65
2023/11/01 05:15:09;;;;;;;2.00;0.95;;;8.10;99.90;;;;;;4960520;28;20295;-65
2023/11/01 05:17:36;;;;;;;1.23;1.13;;;8.10;99.90;;;;;;4962249;28;20210;-65
2023/11/01 05:20:04;;;;;;;1.58;1.08;;;8.10;99.90;;;;;;4961803;28;20212;-65
2023/11/01 05:22:30;;;;;;;1.30;1.00;;;8.20;99.90;;;;;;4963968;28;20605;-65
2023/11/01 05:24:59;;;;;;;1.90;0.90;;;8.20;99.90;;;;;;4964066;28;20203;-67
2023/11/01 05:27:25;;;;;;;1.00;0.88;;;8.10;99.90;;;;;;4966783;28;20214;-67
2023/11/01 05:29:52;;;;;;;2.00;1.10;;;8.10;99.90;;;;;;4964589;28;20211;-67
2023/11/01 05:32:19;;;;;;;2.20;1.35;;;8.10;99.90;;;;;;4970099;28;20224;-67
2023/11/01 05:34:46;;;;;;;1.80;1.20;;;8.10;99.90;;;;;;4965530;28;20207;-67
2023/11/01 05:37:13;;;;;;;2.22;1.35;;;8.10;99.90;;;;;;4965034;28;20214;-67
2023/11/01 05:39:40;;;;;;;4.20;1.23;;;8.10;99.90;;;;;;4966393;28;20235;-67
2023/11/01 05:42:09;;;;;;;2.70;1.05;;;8.10;99.90;;;;;;4964749;28;20228;-66
2023/11/01 05:44:36;;;;;;;1.45;1.35;;;8.10;99.90;;;;;;4967105;28;20207;-67
2023/11/01 05:47:03;;;;;;;1.10;0.90;;;8.10;99.90;;;;;;4963663;28;20223;-67
2023/11/01 05:49:31;;;;;;;1.75;1.30;;;8.10;99.90;;;;;;4967762;28;20303;-67
2023/11/01 05:51:58;;;;;;;1.30;1.00;;;8.10;99.90;;;;;;4964081;28;20231;-66
2023/11/01 05:54:24;;;;;;;2.10;1.05;;;8.10;99.90;;;;;;4967136;28;20211;-67
2023/11/01 05:56:51;;;;;;;1.02;0.93;;;8.10;99.90;;;;;;4966923;28;20212;-67
2023/11/01 05:59:19;;;;;;;1.40;0.93;;;8.00;99.90;;;;;;4967612;28;20204;-67
2023/11/01 06:01:46;;;;;;;1.35;1.25;;;8.00;99.90;;;;;;4966034;28;20234;-67
2023/11/01 06:04:13;;;;;;;2.28;1.00;;;7.90;99.90;;;;;;4969392;28;20263;-67
2023/11/01 06:06:40;;;;;;;1.55;1.23;;;7.80;99.90;;;;;;4970376;28;20212;-67
2023/11/01 06:09:07;;;;;;;1.60;1.17;;;7.90;99.90;;;;;;4964791;28;20272;-66
2023/11/01 06:11:34;;;;;;;1.10;0.90;;;7.80;99.90;;;;;;4967467;28;20230;-66
2023/11/01 06:14:00;;;;;;;1.88;1.10;;;7.70;99.90;;;;;;4966137;28;20204;-67
2023/11/01 06:16:28;;;;;;;1.60;1.15;;;7.70;99.90;;;;;;4966993;28;20218;-67
2023/11/01 06:18:55;;;;;;;2.00;1.13;;;7.70;99.90;;;;;;4967533;28;20212;-66
2023/11/01 06:21:23;;;;;;;2.20;0.80;;;7.70;99.90;;;;;;4967957;28;20225;-67
2023/11/01 06:23:49;;;;;;;1.20;0.90;;;7.60;99.90;;;;;;4970308;28;20204;-66
2023/11/01 06:26:17;;;;;;;1.30;1.00;;;7.60;99.90;;;;;;4970137;28;20212;-67
2023/11/01 06:28:43;;;;;;;2.67;1.20;;;7.60;99.90;;;;;;4966473;28;20242;-66
2023/11/01 06:31:13;;;;;;;1.42;0.98;;;7.60;99.90;;;;;;4969445;28;20543;-67
2023/11/01 06:33:41;;;;;;;1.13;1.02;;;7.60;99.90;;;;;;4969393;28;20580;-66
2023/11/01 06:36:09;;;;;;;1.33;0.98;;;7.60;99.90;;;;;;4967993;28;20216;-66
2023/11/01 06:38:35;;;;;;;1.30;1.10;;;7.60;99.90;;;;;;4967117;28;20457;-66
2023/11/01 06:41:03;;;;;;;2.65;1.17;;;7.60;99.90;;;;;;4964442;28;20286;-66
2023/11/01 06:43:30;;;;;;;1.20;0.98;;;7.60;99.90;;;;;;4970128;28;20212;-67
2023/11/01 06:45:57;;;;;;;2.45;1.20;;;7.60;99.90;;;;;;4965234;28;20208;-66
2023/11/01 06:48:23;;;;;;;1.08;0.90;;;7.60;99.90;;;;;;4967275;28;20212;-66
2023/11/01 06:50:51;;;;;;;1.60;1.00;;;7.70;99.90;;;;;;4969649;28;20699;-67
2023/11/01 06:53:18;;;;;;;1.50;1.10;;;7.70;99.90;;;;;;4970072;28;20209;-67
2023/11/01 06:55:45;;;;;;;1.77;1.10;;;7.80;99.90;;;;;;4970731;28;20208;-66
2023/11/01 06:58:12;;;;;;;1.23;1.13;;;7.80;99.90;;;;;;4966617;28;20640;-67
2023/11/01 07:00:39;;;;;;;1.33;1.23;;;7.90;99.90;;;;;;4973917;28;20254;-66
2023/11/01 07:03:05;;;;;;;2.28;1.40;;;8.00;99.90;;;;;;4962302;28;20203;-66
2023/11/01 07:05:35;;;;;;;1.00;0.90;;;8.00;99.90;;;;;;4973806;28;20215;-67
2023/11/01 07:08:03;;;;;;;1.05;0.95;;;8.00;99.90;;;;;;4969490;28;20208;-67
2023/11/01 07:10:30;;;;;;;5.32;1.10;;;8.10;99.90;;;;;;4966702;28;20221;-67
2023/11/01 07:12:56;;;;;;;1.20;0.90;;;8.20;99.90;;;;;;4969288;28;20208;-66
2023/11/01 07:15:23;;;;;;;1.58;1.10;;;8.20;99.90;;;;;;4972482;28;20217;-67
2023/11/01 07:17:50;;;;;;;1.63;1.00;;;8.30;99.90;;;;;;4967903;28;20775;-66
2023/11/01 07:20:17;;;;;;;1.58;1.20;;;8.40;99.90;;;;;;4968976;28;20272;-67
2023/11/01 07:22:44;;;;;;;2.63;1.30;;;8.50;99.90;;;;;;4967607;28;20271;-66
2023/11/01 07:25:12;;;;;;;2.03;1.10;;;8.60;99.90;;;;;;4960763;28;20212;-66
2023/11/01 07:27:39;;;;;;;1.70;1.15;;;8.80;99.90;;;;;;4966852;28;20249;-67
2023/11/01 07:30:07;;;;;;;1.25;1.10;;;9.10;99.90;;;;;;4970018;28;20211;-67
2023/11/01 07:32:33;;;;;;;3.83;1.05;;;9.30;99.90;;;;;;4965641;28;20250;-66
2023/11/01 07:35:02;;;;;;;1.10;1.00;;;9.40;99.90;;;;;;4969753;28;20219;-66
2023/11/01 07:37:29;;;;;;;1.23;0.90;;;9.60;99.90;;;;;;4968575;28;20308;-67
2023/11/01 07:39:55;;;;;;;1.88;1.13;;;9.80;99.90;;;;;;4965893;28;20225;-66
2023/11/01 07:42:23;;;;;;;1.50;1.20;;;10.00;99.90;;;;;;4969054;28;20227;-66
2023/11/01 07:44:50;;;;;;;2.63;1.40;;;10.20;99.90;;;;;;4969571;28;20219;-66
2023/11/01 07:47:17;;;;;;;1.73;1.40;;;10.30;99.90;;;;;;4965446;28;20248;-67
2023/11/01 07:49:44;;;;;;;2.05;1.33;;;10.50;99.90;;;;;;4970049;28;20212;-67
2023/11/01 07:52:10;;;;;;;1.10;1.00;;;10.70;99.90;;;;;;4965974;28;20235;-67
2023/11/01 07:54:37;;;;;;;1.20;1.05;;;10.80;99.90;;;;;;4970491;28;20222;-67
2023/11/01 07:57:04;;;;;;;3.70;1.10;;;11.00;99.90;;;;;;4959663;28;20232;-66
2023/11/01 07:59:32;;;;;;;1.58;0.90;;;11.10;99.90;;;;;;4967789;28;20219;-67
2023/11/01 08:01:59;;;;;;;1.70;0.80;;;11.30;99.90;;;;;;4961130;28;20241;-67
2023/11/01 08:04:26;;;;;;;2.00;1.00;;;11.60;99.90;;;;;;4967082;28;20248;-67
2023/11/01 08:06:52;;;;;;;3.25;1.33;;;12.00;99.90;;;;;;4964181;28;20213;-66
2023/11/01 08:09:19;;;;;;;1.85;0.95;;;12.60;99.90;;;;;;4968981;28;20215;-66
2023/11/01 08:11:46;;;;;;;1.92;0.95;;;13.20;99.90;;;;;;4964012;28;20225;-66
2023/11/01 08:14:13;;;;;;;1.13;0.80;;;13.70;99.90;;;;;;4967603;28;20239;-66
2023/11/01 08:16:41;;;;;;;2.92;1.05;;;14.00;99.90;;;;;;4969563;28;20220;-66
2023/11/01 08:19:09;;;;;;;1.17;1.00;;;14.40;99.90;;;;;;4968177;28;20215;-66
2023/11/01 08:21:36;;;;;;;1.20;0.80;;;14.90;99.90;;;;;;4967797;28;20532;-70
2023/11/01 08:24:03;;;;;;;1.10;0.80;;;15.50;99.90;;;;;;4963845;28;20502;-66
2023/11/01 08:26:30;;;;;;;1.20;0.93;;;15.80;99.90;;;;;;4961741;28;20494;-66
2023/11/01 08:28:57;;;;;;;1.83;1.20;;;16.00;99.90;;;;;;4967222;28;20530;-68
2023/11/01 08:31:24;;;;;;;1.47;1.00;;;15.80;99.90;;;;;;4964841;28;20498;-67
2023/11/01 08:33:52;;;;;;;1.00;0.90;;;15.70;99.90;;;;;;4966405;28;20650;-67
2023/11/01 08:36:19;;;;;;;0.80;0.70;;;15.60;99.90;;;;;;4966199;28;21023;-67
2023/11/01 08:38:45;;;;;;;1.10;0.90;;;15.50;99.90;;;;;;4964693;28;20474;-67
2023/11/01 08:41:13;;;;;;;0.80;0.70;;;15.70;99.90;;;;;;4966128;28;20492;-67
2023/11/01 08:43:40;;;;;;;2.13;1.13;;;15.90;99.90;;;;;;4966671;28;20470;-67
2023/11/01 08:46:06;;;;;;;2.88;1.00;;;16.10;99.90;;;;;;4967728;28;20475;-67
2023/11/01 08:48:33;;;;;;;1.70;1.20;;;16.20;99.90;;;;;;4968461;28;20250;-66
2023/11/01 08:51:01;;;;;;;1.60;1.00;;;16.50;99.90;;;;;;4968271;28;20487;-67
2023/11/01 08:53:28;;;;;;;1.30;0.93;;;16.90;99.90;;;;;;4968406;28;20494;-67
2023/11/01 08:55:54;;;;;;;1.30;1.20;;;16.90;99.90;;;;;;4968249;28;20986;-67
2023/11/01 08:58:21;;;;;;;1.23;1.00;;;17.00;99.90;;;;;;4965431;28;20565;-67
2023/11/01 09:00:48;;;;;;;1.27;1.00;;;17.20;99.90;;;;;;4969801;28;20498;-67
2023/11/01 09:03:16;;;;;;;2.20;1.00;;;17.10;99.90;;;;;;4959075;28;20555;-68
2023/11/01 09:05:43;;;;;;;1.20;0.93;;;17.00;99.90;;;;;;4968495;28;21260;-67
2023/11/01 09:08:11;;;;;;;1.57;1.00;;;17.10;99.90;;;;;;4957543;28;20472;-67
2023/11/01 09:10:38;;;;;;;2.10;0.97;;;17.10;99.90;;;;;;4969613;28;20860;-67
2023/11/01 09:13:06;;;;;;;1.93;0.93;;;17.10;99.90;;;;;;4959560;28;20490;-67
2023/11/01 09:15:32;;;;;;;1.77;0.93;;;16.90;99.90;;;;;;4968652;28;20468;-67
2023/11/01 09:17:59;;;;;;;1.00;0.90;;;16.80;99.90;;;;;;4959614;28;20483;-67
2023/11/01 09:20:29;;;;;;;2.23;1.10;;;16.70;99.90;;;;;;4966647;28;20474;-67
2023/11/01 09:22:58;;;;;;;1.20;0.80;;;16.60;99.90;;;;;;4959448;28;20480;-66
2023/11/01 09:25:27;;;;;;;0.83;0.80;;;16.60;99.90;;;;;;4964851;28;20964;-66
2023/11/01 09:27:55;;;;;;;1.10;1.00;;;16.60;99.90;;;;;;4964119;28;20492;-66
2023/11/01 09:30:22;;;;;;;3.47;1.00;;;16.70;99.90;;;;;;4967816;28;20499;-67
2023/11/01 09:32:54;;;;;;;1.10;0.93;;;16.80;99.90;;;;;;4961348;28;20936;-67
2023/11/01 09:35:21;;;;;;;1.40;0.97;;;16.80;99.90;;;;;;4963555;28;21226;-66
2023/11/01 09:37:48;;;;;;;1.63;1.20;;;16.70;99.90;;;;;;4963026;28;20462;-67
2023/11/01 09:40:15;;;;;;;1.10;0.93;;;16.60;99.90;;;;;;4966238;28;20558;-67
2023/11/01 09:42:44;;;;;;;1.30;1.10;;;16.50;99.90;;;;;;4962631;28;20466;-67
2023/11/01 09:45:12;;;;;;;1.30;0.90;;;16.50;99.90;;;;;;4966404;28;21163;-66
2023/11/01 09:47:40;;;;;;;1.43;1.00;;;16.50;99.90;;;;;;4965169;28;20995;-67
2023/11/01 09:50:08;;;;;;;0.80;0.73;;;16.50;99.90;;;;;;4966959;28;20938;-66
2023/11/01 09:52:37;;;;;;;1.60;0.97;;;16.60;99.90;;;;;;4968294;28;20583;-67
2023/11/01 09:55:04;;;;;;;0.90;0.80;;;16.90;99.90;;;;;;4968330;28;20472;-67
2023/11/01 09:57:34;;;;;;;1.10;0.90;;;17.10;99.90;;;;;;4960766;28;20484;-67
2023/11/01 10:00:04;;;;;;;1.00;0.80;;;17.30;99.90;;;;;;4965685;28;20472;-70
2023/11/01 10:02:32;;;;;;;1.00;0.90;;;17.30;99.90;;;;;;4960787;28;20483;-68
2023/11/01 10:04:59;;;;;;;1.57;1.00;;;17.00;99.90;;;;;;4965552;28;20480;-68
2023/11/01 10:07:25;;;;;;;1.00;0.90;;;16.90;99.90;;;;;;4971345;28;20464;-66
2023/11/01 10:09:53;;;;;;;0.90;0.70;;;17.00;99.90;;;;;;4965857;28;20464;-66
2023/11/01 10:12:20;;;;;;;1.23;0.87;;;17.10;99.90;;;;;;4970430;28;20491;-66
2023/11/01 10:14:47;;;;;;;2.50;1.20;;;17.00;99.90;;;;;;4967114;28;20480;-67
2023/11/01 10:17:17;;;;;;;1.00;0.90;;;17.00;99.90;;;;;;4970100;28;20468;-66
2023/11/01 10:19:43;;;;;;;1.20;1.00;;;17.20;99.90;;;;;;4967646;28;20531;-66
2023/11/01 10:22:12;;;;;;;1.00;0.80;;;17.20;99.90;;;;;;4968377;28;20481;-66
2023/11/01 10:24:40;;;;;;;2.10;0.93;;;17.30;99.90;;;;;;4966922;28;20455;-67
2023/11/01 10:27:07;;;;;;;1.63;0.80;;;17.40;99.90;;;;;;4972882;28;20474;-66
2023/11/01 10:29:42;;;;;;;3.00;1.00;;;17.50;99.90;;;;;;4966709;28;20846;-65
2023/11/01 10:32:10;;;;;;;1.33;0.90;;;17.60;99.90;;;;;;4973188;28;20488;-65
2023/11/01 10:34:38;;;;;;;2.13;0.97;;;17.70;99.90;;;;;;4964498;28;20469;-66
2023/11/01 10:37:05;;;;;;;3.87;1.50;;;17.70;99.90;;;;;;4965852;28;20499;-66
2023/11/01 10:39:36;;;;;;;1.10;0.90;;;17.80;99.90;;;;;;4966614;28;20476;-66
2023/11/01 10:42:03;;;;;;;1.90;0.97;;;17.90;99.90;;;;;;4973774;28;20482;-67
2023/11/01 10:44:31;;;;;;;1.60;1.10;;;18.10;99.90;;;;;;4965760;28;20474;-66
2023/11/01 10:46:59;;;;;;;2.13;0.80;;;18.10;99.90;;;;;;4972751;28;20469;-66
2023/11/01 10:49:26;;;;;;;1.23;0.90;;;18.10;99.90;;;;;;4967173;28;20475;-66
2023/11/01 10:51:56;;;;;;;1.00;0.73;;;18.00;99.90;;;;;;4959017;28;20861;-66
2023/11/01 10:54:23;;;;;;;0.90;0.70;;;18.00;99.90;;;;;;4971819;28;20552;-66
2023/11/01 10:56:50;;;;;;;1.70;0.80;;;17.90;99.90;;;;;;4965273;28;20476;-65
2023/11/01 10:59:25;;;;;;;0.90;0.70;;;17.80;99.90;;;;;;4957887;28;20469;-66
2023/11/01 11:01:59;;;;;;;1.67;0.80;;;17.60;99.90;;;;;;4954258;28;20488;-66
2023/11/01 11:04:29;;;;;;;1.23;0.90;;;17.50;99.90;;;;;;4972324;28;20473;-65
2023/11/01 11:07:04;;;;;;;1.40;0.90;;;17.50;99.90;;;;;;4972563;28;20476;-68
2023/11/01 11:09:32;;;;;;;1.87;0.90;;;17.50;99.90;;;;;;4969002;28;20494;-66
2023/11/01 11:12:20;;;;;;;1.30;1.20;;;17.50;99.90;;;;;;4962034;28;20475;-65
2023/11/01 11:14:47;;;;;;;1.70;1.20;;;17.50;99.90;;;;;;4957107;28;20465;-66
2023/11/01 11:17:16;;;;;;;3.00;1.30;;;17.60;99.90;;;;;;4969678;28;20849;-66
2023/11/01 11:20:10;;;;;;;2.10;0.93;;;17.90;99.90;;;;;;4964974;28;20504;-66
2023/11/01 11:23:09;;;;;;;1.70;1.00;;;18.00;99.90;;;;;;4958371;28;20486;-66
2023/11/01 11:25:50;;;;;;;1.00;0.80;;;17.90;99.90;;;;;;4961951;28;20479;-66
2023/11/01 11:28:47;;;;;;;1.07;0.90;;;17.90;99.90;;;;;;4962817;28;20818;-66
2023/11/01 11:31:17;;;;;;;1.10;1.00;;;18.00;99.90;;;;;;4972794;28;20610;-66
2023/11/01 11:34:10;;;;;;;1.30;0.87;;;18.10;99.90;;;;;;4973084;28;20913;-66
2023/11/01 11:36:36;;;;;;;1.00;0.90;;;18.10;99.90;;;;;;4954505;28;20526;-66
2023/11/01 11:39:10;;;;;;;1.20;0.90;;;18.00;99.90;;;;;;4969378;28;20872;-66
2023/11/01 11:41:47;;;;;;;1.03;0.90;;;17.80;99.90;;;;;;4962818;28;20556;-66
2023/11/01 11:44:14;;;;;;;1.13;0.80;;;17.60;99.90;;;;;;4970761;28;20464;-65
2023/11/01 11:46:44;;;;;;;1.63;1.00;;;17.40;99.90;;;;;;4972764;28;20469;-65
2023/11/01 11:49:23;;;;;;;1.40;0.90;;;17.20;99.90;;;;;;4972470;28;20462;-65
2023/11/01 11:51:51;;;;;;;1.20;1.00;;;17.00;99.90;;;;;;4965669;28;20488;-65
2023/11/01 11:54:20;;;;;;;1.03;0.93;;;16.70;99.90;;;;;;4962703;28;20544;-65
2023/11/01 11:56:48;;;;;;;1.30;0.90;;;16.50;99.90;;;;;;4960050;28;20472;-66
2023/11/01 11:59:20;;;;;;;1.73;0.90;;;16.50;99.90;;;;;;4955702;28;20472;-65
2023/11/01 12:01:48;;;;;;;1.63;1.03;;;16.50;99.90;;;;;;4965002;28;20480;-65
2023/11/01 12:04:15;;;;;;;1.30;1.07;;;16.50;99.90;;;;;;4957339;28;20966;-65
2023/11/01 12:06:43;;;;;;;1.27;1.10;;;16.50;99.90;;;;;;4954642;28;20516;-66
2023/11/01 12:09:17;;;;;;;1.30;1.00;;;16.60;99.90;;;;;;4955061;28;20479;-65
2023/11/01 12:11:50;;;;;;;1.23;1.07;;;16.70;99.90;;;;;;4972324;28;20507;-66
2023/11/01 12:14:18;;;;;;;2.50;1.00;;;16.70;99.90;;;;;;4956955;28;20535;-66
2023/11/01 12:16:45;;;;;;;1.10;0.90;;;16.80;99.90;;;;;;4961366;28;20503;-66
2023/11/01 12:19:16;;;;;;;1.00;0.80;;;16.70;99.90;;;;;;4954625;28;20481;-66
2023/11/01 12:21:44;;;;;;;2.20;1.20;;;16.80;99.90;;;;;;4961139;28;21009;-66
2023/11/01 12:24:14;;;;;;;1.10;0.90;;;16.80;99.90;;;;;;4961348;28;20463;-66
2023/11/01 12:27:04;;;;;;;1.20;0.93;;;16.80;99.90;;;;;;4967493;28;20553;-66
2023/11/01 12:29:32;;;;;;;2.00;1.13;;;16.90;99.90;;;;;;4952858;28;20537;-67
2023/11/01 12:32:04;;;;;;;1.30;1.10;;;16.90;99.90;;;;;;4954901;28;20490;-68
2023/11/01 12:34:31;;;;;;;1.13;1.00;;;16.80;99.90;;;;;;4954233;28;20992;-67
2023/11/01 12:37:02;;;;;;;1.30;0.90;;;16.60;99.90;;;;;;4954292;28;20465;-67
2023/11/01 12:39:29;;;;;;;1.63;1.17;;;16.40;99.90;;;;;;4954173;28;20491;-67
2023/11/01 12:41:57;;;;;;;1.13;1.00;;;16.20;99.90;;;;;;4961629;28;20484;-67
2023/11/01 12:44:25;;;;;;;0.90;0.80;;;16.10;99.90;;;;;;4956002;28;20537;-67
2023/11/01 12:46:53;;;;;;;1.97;1.10;;;16.00;99.90;;;;;;4959880;28;20476;-67
2023/11/01 12:49:20;;;;;;;1.13;1.03;;;15.90;99.90;;;;;;4957769;28;20845;-68
2023/11/01 12:51:47;;;;;;;1.40;1.00;;;15.90;99.90;;;;;;4954461;28;20491;-67
2023/11/01 12:54:14;;;;;;;1.23;1.13;;;15.70;99.90;;;;;;4956178;28;20850;-66
2023/11/01 12:56:41;;;;;;;1.50;0.80;;;15.70;99.90;;;;;;4960918;28;20562;-66
2023/11/01 12:59:08;;;;;;;1.77;1.00;;;15.60;99.90;;;;;;4955735;28;20480;-67
2023/11/01 13:01:37;;;;;;;1.20;1.10;;;15.60;99.90;;;;;;4956417;28;20491;-67
2023/11/01 13:04:04;;;;;;;3.13;1.00;;;15.60;99.90;;;;;;4961841;28;20978;-68
2023/11/01 13:06:31;;;;;;;1.50;1.10;;;15.60;99.90;;;;;;4963316;28;20510;-69
2023/11/01 13:08:58;;;;;;;1.47;1.13;;;15.70;99.90;;;;;;4960047;28;20491;-67
2023/11/01 13:11:26;;;;;;;3.23;1.50;;;15.70;99.90;;;;;;4957557;28;20495;-67
2023/11/01 13:13:53;;;;;;;1.10;1.00;;;15.70;99.90;;;;;;4955892;28;20590;-66
2023/11/01 13:16:20;;;;;;;1.67;1.10;;;15.70;99.90;;;;;;4957185;28;20825;-66
2023/11/01 13:18:48;;;;;;;1.57;0.93;;;15.70;99.90;;;;;;4956271;28;20851;-66
2023/11/01 13:21:14;;;;;;;1.00;0.90;;;15.60;99.90;;;;;;4957582;28;20491;-66
2023/11/01 13:23:41;;;;;;;4.50;1.40;;;15.60;99.90;;;;;;4962662;28;20457;-66
2023/11/01 13:26:08;;;;;;;1.03;0.90;;;15.50;99.90;;;;;;4956736;28;20472;-66
2023/11/01 13:28:35;;;;;;;1.27;1.00;;;15.40;99.90;;;;;;4956892;28;20842;-66
2023/11/01 13:31:02;;;;;;;2.13;1.10;;;15.40;99.90;;;;;;4956237;28;20511;-66
2023/11/01 13:33:28;;;;;;;1.53;1.10;;;15.40;99.90;;;;;;4964145;28;20495;-66
2023/11/01 13:35:56;;;;;;;1.23;1.07;;;15.30;99.90;;;;;;4956392;28;20468;-66
2023/11/01 13:38:23;;;;;;;2.13;1.30;;;15.30;99.90;;;;;;4963825;28;20475;-66
2023/11/01 13:40:50;;;;;;;2.60;1.20;;;15.20;99.90;;;;;;4961561;28;20495;-67
2023/11/01 13:43:17;;;;;;;1.97;0.90;;;15.10;99.90;;;;;;4964161;28;20487;-66
2023/11/01 13:45:44;;;;;;;1.17;1.00;;;15.10;99.90;;;;;;4966034;28;20468;-66
2023/11/01 13:48:11;;;;;;;1.20;0.90;;;15.10;99.90;;;;;;4961018;28;20980;-66
2023/11/01 13:50:41;;;;;;;2.70;1.20;;;15.00;99.90;;;;;;4961032;28;20486;-67
2023/11/01 13:53:09;;;;;;;1.10;0.90;;;15.00;99.90;;;;;;4966353;28;20502;-67
2023/11/01 13:55:38;;;;;;;1.67;1.10;;;15.10;99.90;;;;;;4966920;28;20493;-66
2023/11/01 13:58:05;;;;;;;1.17;1.07;;;15.00;99.90;;;;;;4960440;28;20464;-67
2023/11/01 14:00:32;;;;;;;1.20;0.80;;;15.10;99.90;;;;;;4962041;28;20463;-67
2023/11/01 14:02:59;;;;;;;1.13;1.00;;;15.10;99.90;;;;;;4961222;28;20470;-66
2023/11/01 14:05:26;;;;;;;1.30;1.00;;;15.00;99.90;;;;;;4962631;28;20971;-67
2023/11/01 14:07:53;;;;;;;0.90;0.80;;;15.00;99.90;;;;;;4959799;28;20779;-67
2023/11/01 14:10:23;;;;;;;0.80;0.80;;;14.90;99.90;;;;;;4967750;28;20468;-66
2023/11/01 14:12:50;;;;;;;1.83;1.43;;;14.90;99.90;;;;;;4965216;28;21001;-67
2023/11/01 14:15:18;;;;;;;1.00;0.90;;;14.90;99.90;;;;;;4961666;28;20472;-67
2023/11/01 14:17:44;;;;;;;1.50;0.93;;;14.90;99.90;;;;;;4960151;28;21032;-67
2023/11/01 14:20:12;;;;;;;0.80;0.70;;;14.90;99.90;;;;;;4966778;28;20854;-66
2023/11/01 14:22:41;;;;;;;1.60;0.80;;;14.90;99.90;;;;;;4961347;28;20463;-66
2023/11/01 14:25:08;;;;;;;3.60;1.00;;;14.80;99.90;;;;;;4960700;28;20470;-66
2023/11/01 14:27:36;;;;;;;1.10;1.00;;;14.80;99.90;;;;;;4963585;28;20475;-67
2023/11/01 14:30:05;;;;;;;1.10;0.90;;;14.70;99.90;;;;;;4966036;28;20472;-66
2023/11/01 14:32:32;;;;;;;3.67;1.03;;;14.70;99.90;;;;;;4961217;28;20945;-66
2023/11/01 14:34:58;;;;;;;1.00;0.80;;;14.70;99.90;;;;;;4968753;28;20837;-66
2023/11/01 14:37:25;;;;;;;1.20;0.90;;;14.70;99.90;;;;;;4972253;28;20475;-66
2023/11/01 14:39:52;;;;;;;1.40;1.13;;;14.70;99.90;;;;;;4965509;28;21013;-66
2023/11/01 14:42:19;;;;;;;3.50;0.90;;;14.60;99.90;;;;;;4972559;28;20494;-66
2023/11/01 14:44:47;;;;;;;1.90;1.07;;;14.50;99.90;;;;;;4968353;28;20489;-66
2023/11/01 14:47:16;;;;;;;2.13;1.13;;;14.40;99.90;;;;;;4968498;28;20480;-67
2023/11/01 14:49:42;;;;;;;7.07;1.67;;;14.30;99.90;;;;;;4971174;28;20558;-67
2023/11/01 14:52:09;;;;;;;2.27;0.97;;;14.30;99.90;;;;;;4960168;28;20491;-66
2023/11/01 14:54:36;;;;;;;1.87;0.97;;;14.30;99.90;;;;;;4972169;28;20490;-66
2023/11/01 14:57:03;;;;;;;1.43;1.10;;;14.30;99.90;;;;;;4959833;28;20467;-67
2023/11/01 14:59:30;;;;;;;1.30;1.00;;;14.30;99.90;;;;;;4960414;28;20482;-66
2023/11/01 15:01:59;;;;;;;1.60;1.03;;;14.20;99.90;;;;;;4964393;28;20923;-67
2023/11/01 15:04:25;;;;;;;1.73;1.00;;;14.10;99.90;;;;;;4964087;28;20474;-67
2023/11/01 15:06:52;;;;;;;2.63;1.30;;;14.10;99.90;;;;;;4963586;28;20475;-66
2023/11/01 15:09:20;;;;;;;1.57;1.17;;;14.10;99.90;;;;;;4972049;28;20471;-67
2023/11/01 15:11:48;;;;;;;2.20;1.23;;;14.00;99.90;;;;;;4968049;28;20487;-67
2023/11/01 15:14:15;;;;;;;1.50;1.40;;;14.00;99.90;;;;;;4964085;28;20913;-67
2023/11/01 15:16:43;;;;;;;7.17;1.30;;;14.00;99.90;;;;;;4963174;28;20549;-67
2023/11/01 15:19:11;;;;;;;3.87;1.50;;;13.90;99.90;;;;;;4964288;28;20557;-67
2023/11/01 15:21:38;;;;;;;1.57;1.20;;;13.80;99.90;;;;;;4962607;28;20903;-67
2023/11/01 15:24:06;;;;;;;2.80;1.07;;;13.80;99.90;;;;;;4965142;28;20475;-66
2023/11/01 15:26:34;;;;;;;1.10;0.90;;;13.70;99.90;;;;;;4967657;28;20467;-67
2023/11/01 15:29:01;;;;;;;1.67;1.20;;;13.60;99.90;;;;;;4964872;28;20627;-66
2023/11/01 15:31:27;;;;;;;1.33;1.10;;;13.50;99.90;;;;;;4964032;28;20494;-67
2023/11/01 15:33:54;;;;;;;3.70;1.50;;;13.50;99.90;;;;;;4963802;28;20497;-66
2023/11/01 15:36:23;;;;;;;1.63;1.45;;;13.40;99.90;;;;;;4972604;28;20474;-67
2023/11/01 15:38:49;;;;;;;2.03;1.60;;;13.40;99.90;;;;;;4963946;28;20238;-67
2023/11/01 15:41:16;;;;;;;1.33;1.10;;;13.40;99.90;;;;;;4968691;28;20882;-67
2023/11/01 15:43:43;;;;;;;1.20;1.00;;;13.40;99.90;;;;;;4962503;28;20470;-67
2023/11/01 15:46:10;;;;;;;1.07;0.97;;;13.30;99.90;;;;;;4960662;28;21003;-66
2023/11/01 15:48:37;;;;;;;6.32;1.73;;;13.30;99.90;;;;;;4967894;28;20470;-67
2023/11/01 15:51:04;;;;;;;3.90;1.57;;;13.30;99.90;;;;;;4961533;28;20235;-66
2023/11/01 15:53:34;;;;;;;3.00;1.60;;;13.20;99.90;;;;;;4956313;28;20476;-67
2023/11/01 15:56:00;;;;;;;2.40;1.23;;;13.20;99.90;;;;;;4959863;28;20240;-67
2023/11/01 15:58:27;;;;;;;2.28;1.52;;;13.10;99.90;;;;;;4967784;28;20532;-67
2023/11/01 16:00:54;;;;;;;1.83;1.60;;;13.10;99.90;;;;;;4967323;28;20231;-66
2023/11/01 16:03:20;;;;;;;1.33;1.23;;;13.00;99.90;;;;;;4960510;28;20223;-67
2023/11/01 16:05:47;;;;;;;2.77;1.40;;;12.90;99.90;;;;;;4964200;28;21324;-67
2023/11/01 16:08:14;;;;;;;2.50;1.27;;;12.80;99.90;;;;;;4958507;28;20475;-67
2023/11/01 16:10:42;;;;;;;3.30;1.35;;;12.80;99.90;;;;;;4961282;28;20239;-66
2023/11/01 16:13:09;;;;;;;1.40;1.20;;;12.70;99.90;;;;;;4966462;28;20211;-66
2023/11/01 16:15:36;;;;;;;3.20;1.23;;;12.60;99.90;;;;;;4966488;28;20724;-67
2023/11/01 16:18:03;;;;;;;1.83;1.40;;;12.50;99.90;;;;;;4961570;28;20216;-67
2023/11/01 16:20:30;;;;;;;1.75;1.10;;;12.50;99.90;;;;;;4958982;28;20218;-67
2023/11/01 16:22:56;;;;;;;1.60;1.27;;;12.50;99.90;;;;;;4958763;28;20228;-67
2023/11/01 16:25:24;;;;;;;2.33;1.48;;;12.40;99.90;;;;;;4966287;28;20247;-66
2023/11/01 16:27:52;;;;;;;1.55;1.45;;;12.30;99.90;;;;;;4959882;28;20245;-67
2023/11/01 16:30:18;;;;;;;2.00;1.67;;;12.30;99.90;;;;;;4959717;28;20229;-66
2023/11/01 16:32:46;;;;;;;1.58;1.33;;;12.20;99.90;;;;;;4963798;28;20711;-66
2023/11/01 16:35:14;;;;;;;1.75;1.35;;;12.10;99.90;;;;;;4963925;28;20219;-67
2023/11/01 16:37:41;;;;;;;1.85;1.50;;;12.10;99.90;;;;;;4961659;28;20246;-66
2023/11/01 16:40:08;;;;;;;1.50;1.30;;;12.00;99.90;;;;;;4963844;28;20219;-67
2023/11/01 16:42:36;;;;;;;3.83;1.60;;;12.00;99.90;;;;;;4970077;28;20241;-67
2023/11/01 16:45:05;;;;;;;1.65;1.20;;;11.90;99.90;;;;;;4963421;28;20218;-66
2023/11/01 16:47:32;;;;;;;3.15;1.50;;;11.90;99.90;;;;;;4958891;28;20312;-66
2023/11/01 16:49:59;;;;;;;1.55;1.30;;;11.80;99.90;;;;;;4964120;28;20321;-66
2023/11/01 16:52:28;;;;;;;2.00;1.30;;;11.80;99.90;;;;;;4964756;28;20612;-66
2023/11/01 16:54:57;;;;;;;1.80;1.10;;;11.80;99.90;;;;;;4968334;28;20250;-66
2023/11/01 16:57:24;;;;;;;5.10;1.95;;;11.80;99.90;;;;;;4970556;28;20217;-67
2023/11/01 16:59:51;;;;;;;1.88;1.50;;;11.70;99.90;;;;;;4964376;28;20301;-66
2023/11/01 17:02:20;;;;;;;2.08;1.80;;;11.70;99.90;;;;;;4971020;28;20238;-64
2023/11/01 17:04:47;;;;;;;1.55;1.20;;;11.70;99.90;;;;;;4969722;28;20210;-64
2023/11/01 17:07:14;;;;;;;2.70;2.00;;;11.60;99.90;;;;;;4969504;28;20947;-67
2023/11/01 17:09:42;;;;;;;2.25;1.65;;;11.60;99.90;;;;;;4967826;28;20218;-67
2023/11/01 17:12:09;;;;;;;2.50;1.60;;;11.60;99.90;;;;;;4967570;28;20706;-67